createdAt,value
2023-03-17T00:00:20.029Z,6.99
2023-03-17T00:02:48.712Z,7.01
2023-03-17T00:05:19.375Z,7.04
2023-03-17T00:07:47.637Z,7.02
2023-03-17T00:10:19.078Z,7.05
2023-03-17T00:12:46.818Z,7.08
2023-03-17T00:15:15.236Z,7.00
2023-03-17T00:17:42.662Z,7.09
2023-03-17T00:20:13.367Z,7.10
2023-03-17T00:22:41.210Z,7.11
2023-03-17T00:25:28.433Z,7.14
2023-03-17T00:27:57.011Z,7.21
2023-03-17T00:30:28.385Z,7.24
2023-03-17T00:32:58.018Z,7.20
2023-03-17T00:35:27.236Z,7.24
2023-03-17T00:37:55.765Z,7.33
2023-03-17T00:40:25.941Z,7.43
2023-03-17T00:42:53.773Z,7.53
2023-03-17T00:45:22.309Z,7.61
2023-03-17T00:47:50.438Z,7.43
2023-03-17T00:50:19.236Z,7.60
2023-03-17T00:52:46.688Z,7.65
2023-03-17T00:55:14.717Z,7.60
2023-03-17T00:57:42.732Z,7.59
2023-03-17T01:00:21.679Z,7.61
2023-03-17T01:02:50.997Z,7.61
2023-03-17T01:05:18.370Z,7.45
2023-03-17T01:07:53.136Z,7.47
2023-03-17T01:10:22.798Z,7.51
2023-03-17T01:12:51.623Z,7.40
2023-03-17T01:15:20.031Z,7.37
2023-03-17T01:17:47.935Z,7.35
2023-03-17T01:20:19.898Z,7.30
2023-03-17T01:22:47.190Z,7.42
2023-03-17T01:25:16.679Z,7.18
2023-03-17T01:27:45.364Z,7.29
2023-03-17T01:30:29.892Z,7.28
2023-03-17T01:32:58.161Z,7.39
2023-03-17T01:35:26.944Z,7.42
2023-03-17T01:37:54.365Z,7.43
2023-03-17T01:40:23.498Z,7.39
2023-03-17T01:42:58.926Z,7.44
2023-03-17T01:45:44.972Z,7.52
2023-03-17T01:48:12.229Z,7.50
2023-03-17T01:50:39.899Z,7.52
2023-03-17T01:53:07.803Z,7.02
2023-03-17T01:55:35.693Z,6.44
2023-03-17T01:58:03.171Z,5.77
2023-03-17T02:00:31.305Z,5.74
2023-03-17T02:02:59.452Z,5.46
2023-03-17T02:05:29.212Z,5.17
2023-03-17T02:07:56.721Z,5.27
2023-03-17T02:10:30.446Z,5.21
2023-03-17T02:13:00.098Z,5.23
2023-03-17T02:15:37.009Z,5.79
2023-03-17T02:18:04.818Z,5.50
2023-03-17T02:20:32.871Z,5.21
2023-03-17T02:23:01.007Z,5.04
2023-03-17T02:25:31.033Z,5.09
2023-03-17T02:28:01.991Z,5.48
2023-03-17T02:30:29.661Z,5.42
2023-03-17T02:32:57.150Z,4.90
2023-03-17T02:35:27.397Z,4.77
2023-03-17T02:37:54.716Z,5.15
2023-03-17T02:40:22.277Z,5.57
2023-03-17T02:42:49.593Z,5.86
2023-03-17T02:45:16.856Z,6.06
2023-03-17T02:47:46.241Z,6.12
2023-03-17T02:50:19.439Z,6.20
2023-03-17T02:52:46.696Z,6.34
2023-03-17T02:55:14.694Z,6.12
2023-03-17T02:57:42.194Z,5.97
2023-03-17T03:00:14.504Z,6.20
2023-03-17T03:02:42.357Z,6.31
2023-03-17T03:05:09.940Z,6.25
2023-03-17T03:07:37.199Z,5.77
2023-03-17T03:10:04.728Z,5.63
2023-03-17T03:12:32.147Z,5.54
2023-03-17T03:14:59.794Z,5.57
2023-03-17T03:17:27.103Z,5.59
2023-03-17T03:19:54.356Z,5.47
2023-03-17T03:22:21.590Z,5.21
2023-03-17T03:24:48.844Z,5.15
2023-03-17T03:27:17.305Z,5.48
2023-03-17T03:29:44.662Z,5.87
2023-03-17T03:32:11.916Z,6.04
2023-03-17T03:34:39.263Z,5.99
2023-03-17T03:37:07.105Z,6.29
2023-03-17T03:39:34.409Z,6.25
2023-03-17T03:42:01.715Z,6.45
2023-03-17T03:44:28.967Z,6.40
2023-03-17T03:46:59.234Z,6.52
2023-03-17T03:49:26.735Z,6.35
2023-03-17T03:51:54.013Z,6.48
2023-03-17T03:54:21.274Z,6.30
2023-03-17T03:56:48.473Z,6.29
2023-03-17T03:59:16.631Z,6.10
2023-03-17T04:01:43.816Z,5.95
2023-03-17T04:04:11.238Z,6.02
2023-03-17T04:06:38.411Z,5.90
2023-03-17T04:09:05.680Z,5.91
2023-03-17T04:11:33.188Z,5.84
2023-03-17T04:14:00.459Z,5.74
2023-03-17T04:19:17.334Z,5.80
2023-03-17T04:27:42.849Z,6.04
2023-03-17T04:30:12.552Z,6.00
2023-03-17T04:32:40.219Z,6.16
2023-03-17T04:35:11.292Z,6.17
2023-03-17T04:37:39.138Z,6.22
2023-03-17T04:40:08.647Z,6.23
2023-03-17T04:42:36.436Z,6.34
2023-03-17T04:45:04.355Z,6.40
2023-03-17T04:47:31.608Z,6.59
2023-03-17T04:49:58.996Z,6.77
2023-03-17T04:52:26.527Z,6.85
2023-03-17T04:54:53.730Z,6.99
2023-03-17T04:57:21.017Z,7.08
2023-03-17T04:59:48.389Z,7.19
2023-03-17T05:02:15.677Z,7.21
2023-03-17T05:04:43.663Z,7.22
2023-03-17T05:07:11.288Z,7.26
2023-03-17T05:09:38.685Z,7.36
2023-03-17T05:12:06.516Z,7.23
2023-03-17T05:14:33.910Z,7.29
2023-03-17T05:17:01.277Z,7.29
2023-03-17T05:19:28.548Z,7.44
2023-03-17T05:21:56.442Z,7.32
2023-03-17T05:24:23.699Z,7.59
2023-03-17T05:26:50.983Z,7.60
2023-03-17T05:29:18.260Z,7.60
2023-03-17T05:31:45.480Z,7.77
2023-03-17T05:34:12.743Z,7.93
2023-03-17T05:36:39.987Z,8.11
2023-03-17T05:39:07.768Z,8.17
2023-03-17T05:41:35.205Z,8.39
2023-03-17T05:44:02.458Z,8.41
2023-03-17T05:46:29.765Z,8.61
2023-03-17T05:48:57.056Z,8.63
2023-03-17T05:51:24.347Z,8.84
2023-03-17T05:53:51.816Z,8.87
2023-03-17T05:56:19.079Z,8.97
2023-03-17T05:58:46.502Z,9.08
2023-03-17T06:01:14.500Z,9.24
2023-03-17T06:03:42.475Z,9.37
2023-03-17T06:06:09.754Z,9.46
2023-03-17T06:08:37.450Z,9.53
2023-03-17T06:11:05.734Z,9.67
2023-03-17T06:13:32.973Z,9.78
2023-03-17T06:16:00.349Z,9.87
2023-03-17T06:18:27.551Z,9.96
2023-03-17T06:20:55.634Z,10.07
2023-03-17T06:23:24.138Z,10.20
2023-03-17T06:25:51.411Z,10.32
2023-03-17T06:28:18.849Z,10.44
2023-03-17T06:30:46.329Z,10.53
2023-03-17T06:33:13.596Z,10.66
2023-03-17T06:35:41.316Z,10.75
2023-03-17T06:38:08.592Z,10.84
2023-03-17T06:40:35.915Z,11.01
2023-03-17T06:43:03.375Z,11.13
2023-03-17T06:45:30.786Z,11.25
2023-03-17T06:47:58.294Z,11.39
2023-03-17T06:50:26.074Z,11.51
2023-03-17T06:52:53.312Z,11.69
2023-03-17T06:55:21.601Z,11.82
2023-03-17T06:57:50.977Z,11.97
2023-03-17T07:00:19.438Z,12.10
2023-03-17T07:02:47.743Z,12.29
2023-03-17T07:05:15.022Z,12.40
2023-03-17T07:07:42.223Z,12.51
2023-03-17T07:10:10.679Z,12.70
2023-03-17T07:12:38.284Z,12.85
2023-03-17T07:15:05.752Z,13.01
2023-03-17T07:17:33.663Z,13.15
2023-03-17T07:20:01.165Z,13.23
2023-03-17T07:22:29.761Z,13.44
2023-03-17T07:24:57.041Z,13.57
2023-03-17T07:27:26.718Z,13.67
2023-03-17T07:29:54.036Z,13.78
2023-03-17T07:32:21.314Z,13.88
2023-03-17T07:34:48.762Z,13.95
2023-03-17T07:37:16.174Z,13.96
2023-03-17T07:39:43.929Z,14.03
2023-03-17T07:42:15.068Z,14.10
2023-03-17T07:44:42.406Z,14.19
2023-03-17T07:47:11.003Z,14.28
2023-03-17T07:49:41.999Z,14.42
2023-03-17T07:52:10.570Z,14.48
2023-03-17T07:54:38.084Z,14.57
2023-03-17T07:57:08.213Z,14.66
2023-03-17T07:59:35.555Z,14.76
2023-03-17T08:02:02.741Z,14.84
2023-03-17T08:04:30.292Z,14.91
2023-03-17T08:06:57.886Z,14.96
2023-03-17T08:09:25.866Z,15.07
2023-03-17T08:11:53.156Z,15.16
2023-03-17T08:14:20.737Z,15.29
2023-03-17T08:16:48.484Z,15.37
2023-03-17T08:19:16.598Z,15.39
2023-03-17T08:21:43.929Z,15.47
2023-03-17T08:24:11.405Z,15.59
2023-03-17T08:26:38.778Z,15.71
2023-03-17T08:29:06.224Z,15.76
2023-03-17T08:31:34.350Z,15.81
2023-03-17T08:34:03.031Z,15.84
2023-03-17T08:36:30.505Z,15.90
2023-03-17T08:38:58.173Z,15.96
2023-03-17T08:41:27.257Z,16.07
2023-03-17T08:43:55.205Z,16.13
2023-03-17T08:46:27.379Z,16.14
2023-03-17T08:48:56.604Z,16.24
2023-03-17T08:51:25.127Z,16.33
2023-03-17T08:53:52.627Z,16.40
2023-03-17T08:56:20.119Z,16.49
2023-03-17T08:58:48.091Z,16.63
2023-03-17T09:01:16.366Z,16.70
2023-03-17T09:03:44.207Z,16.78
2023-03-17T09:06:12.585Z,16.79
2023-03-17T09:08:41.497Z,16.89
2023-03-17T09:11:09.980Z,16.89
2023-03-17T09:13:39.365Z,17.02
2023-03-17T09:16:09.063Z,17.01
2023-03-17T09:18:36.486Z,17.08
2023-03-17T09:21:03.972Z,17.02
2023-03-17T09:23:31.384Z,17.15
2023-03-17T09:25:58.870Z,17.27
2023-03-17T09:28:26.112Z,17.32
2023-03-17T09:30:57.655Z,17.42
2023-03-17T09:33:25.361Z,17.46
2023-03-17T09:35:53.122Z,17.50
2023-03-17T09:38:20.747Z,17.53
2023-03-17T09:40:49.623Z,17.60
2023-03-17T09:43:23.139Z,17.58
2023-03-17T09:45:51.658Z,17.64
2023-03-17T09:48:22.077Z,17.70
2023-03-17T09:50:54.362Z,17.74
2023-03-17T09:53:42.063Z,17.79
2023-03-17T09:56:12.995Z,17.90
2023-03-17T09:58:42.678Z,17.95
2023-03-17T10:01:10.649Z,17.98
2023-03-17T10:03:37.888Z,17.99
2023-03-17T10:06:22.852Z,17.97
2023-03-17T10:09:01.077Z,18.02
2023-03-17T10:11:31.845Z,18.01
2023-03-17T10:14:09.756Z,18.03
2023-03-17T10:16:41.781Z,17.99
2023-03-17T10:19:19.611Z,18.04
2023-03-17T10:21:58.366Z,18.05
2023-03-17T10:24:26.900Z,18.07
2023-03-17T10:26:58.098Z,18.11
2023-03-17T10:29:25.674Z,18.10
2023-03-17T10:31:56.353Z,18.06
2023-03-17T10:34:28.113Z,18.00
2023-03-17T10:37:05.912Z,18.01
2023-03-17T10:39:42.301Z,18.03
2023-03-17T10:42:11.728Z,18.02
2023-03-17T10:44:40.742Z,17.94
2023-03-17T10:47:20.700Z,17.97
2023-03-17T10:49:48.335Z,17.92
2023-03-17T10:52:24.019Z,17.91
2023-03-17T10:54:54.808Z,17.88
2023-03-17T10:57:22.459Z,17.86
2023-03-17T10:59:55.701Z,17.74
2023-03-17T11:02:28.009Z,17.64
2023-03-17T11:05:04.680Z,17.62
2023-03-17T11:07:39.821Z,17.62
2023-03-17T11:10:18.610Z,17.53
2023-03-17T11:12:48.890Z,17.52
2023-03-17T11:15:18.123Z,17.47
2023-03-17T11:17:45.783Z,17.42
2023-03-17T11:20:25.146Z,17.40
2023-03-17T11:23:02.565Z,17.39
2023-03-17T11:25:30.211Z,17.42
2023-03-17T11:28:08.431Z,17.32
2023-03-17T11:30:37.262Z,17.27
2023-03-17T11:33:04.470Z,17.27
2023-03-17T11:35:36.068Z,17.30
2023-03-17T11:38:18.393Z,17.22
2023-03-17T11:40:45.661Z,17.20
2023-03-17T11:43:26.037Z,17.18
2023-03-17T11:45:58.318Z,17.10
2023-03-17T11:48:25.784Z,17.09
2023-03-17T11:50:59.277Z,17.15
2023-03-17T11:53:26.614Z,17.10
2023-03-17T11:56:11.348Z,17.10
2023-03-17T11:58:41.622Z,17.15
2023-03-17T12:01:13.184Z,17.13
2023-03-17T12:03:43.920Z,17.11
2023-03-17T12:06:16.002Z,17.03
2023-03-17T12:08:47.069Z,17.01
2023-03-17T12:11:17.437Z,17.01
2023-03-17T12:13:46.918Z,16.96
2023-03-17T12:16:27.484Z,16.93
2023-03-17T12:19:01.228Z,16.93
2023-03-17T12:21:37.262Z,16.99
2023-03-17T12:24:11.701Z,16.88
2023-03-17T12:26:45.035Z,16.89
2023-03-17T12:29:15.691Z,16.86
2023-03-17T12:31:47.355Z,16.76
2023-03-17T12:34:22.832Z,16.73
2023-03-17T12:36:50.284Z,16.70
2023-03-17T12:39:24.796Z,16.69
2023-03-17T12:42:05.761Z,16.63
2023-03-17T12:44:52.071Z,16.59
2023-03-17T12:47:22.297Z,16.55
2023-03-17T12:50:05.260Z,16.58
2023-03-17T12:52:54.100Z,16.56
2023-03-17T12:55:24.863Z,16.46
2023-03-17T12:58:01.195Z,16.41
2023-03-17T13:00:33.576Z,16.35
2023-03-17T13:03:13.675Z,16.32
2023-03-17T13:05:45.323Z,16.23
2023-03-17T13:08:16.578Z,16.18
2023-03-17T13:10:45.107Z,16.14
2023-03-17T13:13:31.221Z,16.14
2023-03-17T13:15:59.697Z,16.04
2023-03-17T13:18:46.060Z,15.97
2023-03-17T13:21:15.610Z,15.87
2023-03-17T13:23:46.001Z,15.82
2023-03-17T13:26:14.837Z,15.84
2023-03-17T13:28:43.973Z,15.86
2023-03-17T13:31:16.701Z,15.79
2023-03-17T13:33:54.354Z,15.71
2023-03-17T13:36:29.021Z,15.66
2023-03-17T13:39:18.387Z,15.58
2023-03-17T13:41:59.243Z,15.50
2023-03-17T13:44:28.205Z,15.45
2023-03-17T13:46:55.629Z,15.31
2023-03-17T13:49:30.449Z,15.28
2023-03-17T13:52:08.523Z,15.22
2023-03-17T13:54:40.980Z,15.21
2023-03-17T13:57:28.897Z,15.11
2023-03-17T14:00:06.174Z,15.09
2023-03-17T14:02:36.760Z,15.11
2023-03-17T14:05:09.127Z,15.11
2023-03-17T14:07:51.343Z,14.96
2023-03-17T14:10:20.102Z,14.91
2023-03-17T14:12:47.293Z,14.83
2023-03-17T14:15:29.625Z,14.78
2023-03-17T14:18:02.020Z,14.73
2023-03-17T14:20:29.528Z,14.71
2023-03-17T14:22:59.429Z,14.73
2023-03-17T14:25:31.203Z,14.76
2023-03-17T14:27:58.761Z,14.76
2023-03-17T14:30:27.631Z,14.72
2023-03-17T14:33:04.200Z,14.68
2023-03-17T14:35:33.213Z,14.59
2023-03-17T14:38:01.127Z,14.61
2023-03-17T14:40:30.133Z,14.55
2023-03-17T14:42:57.778Z,14.46
2023-03-17T14:45:30.446Z,14.44
2023-03-17T14:47:58.285Z,14.33
2023-03-17T14:50:31.180Z,14.27
2023-03-17T14:52:59.846Z,14.22
2023-03-17T14:55:34.999Z,14.18
2023-03-17T14:58:07.334Z,14.19
2023-03-17T15:00:37.474Z,14.11
2023-03-17T15:03:16.285Z,14.08
2023-03-17T15:05:44.311Z,14.08
2023-03-17T15:08:38.391Z,14.13
2023-03-17T15:11:06.679Z,14.08
2023-03-17T15:13:35.338Z,13.99
2023-03-17T15:16:06.672Z,13.99
2023-03-17T15:18:34.036Z,13.96
2023-03-17T15:21:01.457Z,14.01
2023-03-17T15:23:29.441Z,13.93
2023-03-17T15:25:57.313Z,13.88
2023-03-17T15:28:26.551Z,13.87
2023-03-17T15:30:57.029Z,13.87
2023-03-17T15:33:31.279Z,13.79
2023-03-17T15:36:00.596Z,13.78
2023-03-17T15:38:28.106Z,13.78
2023-03-17T15:40:55.766Z,13.67
2023-03-17T15:43:23.096Z,13.68
2023-03-17T15:46:03.958Z,13.63
2023-03-17T15:48:33.004Z,13.59
2023-03-17T15:51:00.664Z,13.56
2023-03-17T15:53:28.272Z,13.67
2023-03-17T15:55:55.475Z,13.62
2023-03-17T15:58:22.735Z,13.64
2023-03-17T16:00:54.921Z,13.59
2023-03-17T16:03:22.176Z,13.58
2023-03-17T16:05:49.483Z,13.62
2023-03-17T16:08:18.384Z,13.53
2023-03-17T16:10:46.658Z,13.47
2023-03-17T16:13:13.932Z,13.47
2023-03-17T16:15:43.298Z,13.47
2023-03-17T16:18:18.553Z,13.45
2023-03-17T16:20:51.191Z,13.40
2023-03-17T16:23:23.231Z,13.34
2023-03-17T16:25:50.589Z,13.30
2023-03-17T16:28:19.711Z,13.24
2023-03-17T16:30:47.698Z,13.24
2023-03-17T16:33:22.748Z,13.14
2023-03-17T16:35:50.950Z,13.16
2023-03-17T16:38:21.179Z,13.24
2023-03-17T16:40:53.299Z,13.23
2023-03-17T16:43:25.489Z,13.08
2023-03-17T16:46:00.296Z,13.05
2023-03-17T16:48:27.684Z,13.07
2023-03-17T16:50:55.733Z,12.92
2023-03-17T16:53:23.910Z,12.85
2023-03-17T16:55:52.161Z,12.85
2023-03-17T16:58:20.983Z,12.87
2023-03-17T17:00:49.287Z,12.95
2023-03-17T17:03:16.937Z,12.95
2023-03-17T17:05:44.767Z,12.90
2023-03-17T17:08:11.998Z,12.85
2023-03-17T17:10:40.220Z,12.82
2023-03-17T17:13:08.895Z,12.72
2023-03-17T17:15:37.097Z,12.75
2023-03-17T17:18:07.368Z,12.72
2023-03-17T17:20:36.337Z,12.68
2023-03-17T17:23:03.890Z,12.62
2023-03-17T17:25:31.462Z,12.56
2023-03-17T17:27:59.324Z,12.48
2023-03-17T17:30:28.611Z,12.45
2023-03-17T17:32:57.360Z,12.36
2023-03-17T17:35:25.941Z,12.30
2023-03-17T17:37:53.553Z,12.30
2023-03-17T17:40:22.449Z,12.18
2023-03-17T17:42:49.773Z,12.09
2023-03-17T17:45:17.805Z,11.99
2023-03-17T17:47:45.310Z,11.99
2023-03-17T17:50:17.254Z,11.97
2023-03-17T17:52:46.552Z,11.82
2023-03-17T17:55:14.692Z,11.70
2023-03-17T17:57:42.338Z,11.55
2023-03-17T18:00:12.986Z,11.31
2023-03-17T18:02:40.390Z,11.26
2023-03-17T18:05:09.510Z,11.02
2023-03-17T18:07:36.827Z,10.56
2023-03-17T18:10:04.659Z,10.67
2023-03-17T18:12:32.298Z,10.92
2023-03-17T18:14:59.633Z,10.79
2023-03-17T18:17:27.604Z,10.95
2023-03-17T18:19:54.823Z,10.95
2023-03-17T18:22:22.165Z,10.83
2023-03-17T18:24:49.639Z,10.77
2023-03-17T18:27:17.549Z,10.89
2023-03-17T18:29:45.166Z,10.85
2023-03-17T18:32:13.324Z,10.68
2023-03-17T18:34:47.028Z,10.70
2023-03-17T18:37:15.738Z,10.65
2023-03-17T18:39:43.118Z,10.65
2023-03-17T18:42:10.822Z,10.53
2023-03-17T18:44:38.489Z,10.54
2023-03-17T18:47:05.922Z,10.52
2023-03-17T18:49:34.338Z,10.32
2023-03-17T18:52:01.676Z,10.29
2023-03-17T18:54:29.128Z,10.26
2023-03-17T18:56:57.443Z,10.20
2023-03-17T18:59:24.802Z,10.19
2023-03-17T19:01:52.276Z,10.10
2023-03-17T19:04:19.669Z,10.02
2023-03-17T19:06:46.873Z,10.00
2023-03-17T19:09:14.524Z,10.02
2023-03-17T19:11:42.293Z,9.98
2023-03-17T19:14:10.131Z,9.94
2023-03-17T19:16:37.539Z,9.91
2023-03-17T19:19:04.791Z,9.87
2023-03-17T19:21:32.729Z,9.85
2023-03-17T19:24:01.170Z,9.85
2023-03-17T19:26:30.647Z,9.79
2023-03-17T19:28:57.858Z,9.88
2023-03-17T19:31:25.179Z,9.95
2023-03-17T19:33:52.503Z,10.10
2023-03-17T19:36:20.156Z,10.07
2023-03-17T19:38:47.487Z,10.18
2023-03-17T19:41:15.886Z,10.23
2023-03-17T19:43:43.247Z,10.30
2023-03-17T19:46:11.731Z,10.34
2023-03-17T19:48:39.319Z,10.31
2023-03-17T19:51:07.278Z,10.33
2023-03-17T19:53:34.876Z,10.34
2023-03-17T19:56:02.126Z,10.32
2023-03-17T19:58:29.432Z,10.34
2023-03-17T20:00:56.773Z,10.26
2023-03-17T20:03:26.154Z,10.16
2023-03-17T20:05:53.849Z,10.07
2023-03-17T20:08:22.738Z,9.96
2023-03-17T20:10:54.208Z,9.90
2023-03-17T20:13:22.174Z,9.83
2023-03-17T20:15:50.572Z,9.80
2023-03-17T20:18:19.012Z,9.74
2023-03-17T20:20:49.816Z,9.71
2023-03-17T20:23:17.714Z,9.59
2023-03-17T20:25:45.188Z,9.55
2023-03-17T20:28:12.604Z,9.51
2023-03-17T20:30:40.367Z,9.45
2023-03-17T20:33:08.525Z,9.41
2023-03-17T20:35:36.567Z,9.41
2023-03-17T20:38:03.875Z,9.38
2023-03-17T20:40:31.727Z,9.29
2023-03-17T20:42:59.140Z,9.23
2023-03-17T20:45:26.518Z,9.23
2023-03-17T20:47:54.806Z,9.20
2023-03-17T20:50:23.004Z,9.17
2023-03-17T20:52:50.344Z,9.16
2023-03-17T20:55:17.959Z,9.11
2023-03-17T20:57:48.883Z,9.08
2023-03-17T21:00:20.450Z,9.06
2023-03-17T21:02:50.458Z,9.04
2023-03-17T21:05:20.282Z,9.02
2023-03-17T21:07:48.392Z,8.99
2023-03-17T21:10:16.018Z,8.91
2023-03-17T21:12:43.748Z,8.88
2023-03-17T21:15:11.209Z,8.85
2023-03-17T21:17:38.948Z,8.84
2023-03-17T21:20:07.076Z,8.85
2023-03-17T21:22:37.227Z,8.85
2023-03-17T21:25:05.501Z,8.87
2023-03-17T21:27:34.156Z,8.80
2023-03-17T21:30:01.548Z,8.78
2023-03-17T21:32:28.802Z,8.79
2023-03-17T21:34:56.224Z,8.77
2023-03-17T21:37:23.557Z,8.77
2023-03-17T21:39:50.834Z,8.77
2023-03-17T21:42:18.231Z,8.78
2023-03-17T21:44:46.146Z,8.75
2023-03-17T21:47:13.477Z,8.72
2023-03-17T21:49:41.718Z,8.72
2023-03-17T21:52:09.771Z,8.71
2023-03-17T21:54:37.045Z,8.70
2023-03-17T21:57:04.856Z,8.68
2023-03-17T21:59:34.617Z,8.66
2023-03-17T22:02:03.142Z,8.59
2023-03-17T22:04:30.288Z,8.61
2023-03-17T22:06:59.167Z,8.63
2023-03-17T22:09:26.477Z,8.63
2023-03-17T22:11:53.733Z,8.63
2023-03-17T22:14:21.056Z,8.63
2023-03-17T22:16:49.091Z,8.53
2023-03-17T22:19:18.183Z,8.54
2023-03-17T22:21:46.577Z,8.53
2023-03-17T22:24:13.859Z,8.53
2023-03-17T22:26:41.376Z,8.55
2023-03-17T22:29:08.686Z,8.51
2023-03-17T22:31:36.536Z,8.45
2023-03-17T22:34:04.514Z,8.47
2023-03-17T22:36:32.182Z,8.50
2023-03-17T22:39:00.134Z,8.52
2023-03-17T22:41:28.772Z,8.53
2023-03-17T22:43:56.353Z,8.49
2023-03-17T22:46:24.228Z,8.53
2023-03-17T22:48:52.144Z,8.58
2023-03-17T22:51:21.118Z,8.60
2023-03-17T22:53:48.709Z,8.61
2023-03-17T22:56:16.785Z,8.64
2023-03-17T22:58:45.028Z,8.61
2023-03-17T23:01:13.847Z,8.66
2023-03-17T23:03:41.399Z,8.64
2023-03-17T23:06:08.926Z,8.64
2023-03-17T23:08:38.669Z,8.61
2023-03-17T23:11:08.061Z,8.59
2023-03-17T23:13:35.919Z,8.53
2023-03-17T23:16:04.979Z,8.50
2023-03-17T23:18:32.601Z,8.46
2023-03-17T23:21:00.395Z,8.45
2023-03-17T23:23:27.691Z,8.44
2023-03-17T23:25:55.044Z,8.46
2023-03-17T23:28:22.404Z,8.44
2023-03-17T23:30:49.767Z,8.39
2023-03-17T23:33:21.451Z,8.37
2023-03-17T23:35:50.756Z,8.36
2023-03-17T23:38:19.750Z,8.37
2023-03-17T23:40:47.521Z,8.38
2023-03-17T23:43:15.107Z,8.37
2023-03-17T23:45:42.475Z,8.37
2023-03-17T23:48:10.785Z,8.41
2023-03-17T23:50:39.663Z,8.38
2023-03-17T23:53:06.915Z,8.38
2023-03-17T23:55:34.301Z,8.40
2023-03-17T23:58:04.221Z,8.39
